Aviation Digital Data Service (ADDS)

Output produced by METARs form (0516 UTC 19 February 2019)
found at http://www.aviationweather.gov/metar/data/
 
Forecast for: KMLB (MELBOURNE , FL, US)
Text: KMLB 182336Z 1900/1924 VRB05KT P6SM OVC050
Forecast period: 0000 to 1500 UTC 19 February 2019
Forecast type: FROM: standard forecast or significant change
Winds: variable direction winds at 6 MPH (5 knots; 2.6 m/s)
Visibility: 6 or more miles 10+ km)
Ceiling: 5000 feet AGL
Clouds: overcast cloud deck at 5000 feet AGL
Weather: no significant weather forecast for this period
Text: TEMPO 1909/1913 BKN015
Forecast period: 0900 to 1300 UTC 19 February 2019
Forecast type: TEMPORARY: The following changes expected for less than half the time period
Visibility: missing
Ceiling: 1500 feet AGL
Clouds: broken clouds at 1500 feet AGL
Weather: no significant weather forecast for this period
Text: FM191500 11008KT P6SM SCT025 BKN045
Forecast period: 1500 UTC 19 February 2019 to 0000 UTC 20 February 2019
Forecast type: FROM: standard forecast or significant change
Winds: from the ESE (110 degrees) at 9 MPH (8 knots; 4.1 m/s)
Visibility: 6 or more miles 10+ km)
Ceiling: 4500 feet AGL
Clouds: scattered clouds at 2500 feet AGL
broken clouds at 4500 feet AGL
Weather: no significant weather forecast for this period